Grass Lake, MI (49240)

08:35 PM EDT del 24 Ottobre 2014 (GMT -0400)
South of I-94 in Grass Lake Michigan | Change Station
CLOSE
Current Station
Stazione meteo personale
Location: Grass Lake Charter Township, MI
Altitudine: 1010 ft
Stazioni meteo nelle vicinanze

Alt. 1010 ft 42.28 °N, 84.19 °W | Updated 24 seconds ago

Parzialmente nuvoloso
Parzialmente nuvoloso
51.5 °F
Sembra 51.5 °F
N
0.0
Vento Variabile Vento da OSO
Gusts 0.0 mph

Oggi
Massima -- | Minima -- °F
--% Possibilità di precip.
Ieri
Massima -- | Minima -- °F
Precip. -- in
8:00 AM 6:41 PM
Luna nuova, 1% visible
Pressione 30.00 in
Visibilità 4.0 miglia
Nuvole Sereno
Punto di rugiada 40 °F
Umidità 65%
Piovosità 0.00 in
Spessore del manto nevoso Non disponibile.
Raggi UV 0 fuori da 12
Polline 1.20 fuori da 12
PM2.5 Moderato
Flu Activity Sporadic
METAR KJXN 242356Z 00000KT 4SM BR CLR 10/08 A2998 RMK AO2 SLP159 T01000083 10150 20100 53000

More Conditions Fewer Conditions

Pressione 30.00 in
Visibilità 4.0 miglia
Nuvole Sereno
Punto di rugiada 40 °F
Umidità 65%
Piovosità 0.00 in
Spessore del manto nevoso Non disponibile.
Raggi UV 0 fuori da 12
Polline 1.20 fuori da 12
PM2.5 Moderato
Flu Activity Sporadic
METAR KJXN 242356Z 00000KT 4SM BR CLR 10/08 A2998 RMK AO2 SLP159 T01000083 10150 20100 53000

More Conditions Fewer Conditions

10-Day Weather Forecast

Almanac

Astronomia

Oct. 24, 2014 Alba Tramonto
Ora attuale 08:00 EDT 18:41 EDT
Crepuscolo civile 07:31 EDT 19:09 EDT
Crepuscolo nautico 06:58 EDT 19:42 EDT
Crepuscolo astronomico 06:26 EDT 20:14 EDT
Luna 08:38 EDT (10/24) 19:19 EDT (10/24)
Estensione della luce visibile 11h 38m
Lunghezza del giorno
10h 40m
Tomorrow will be 2m 39s shorter.
Luna nuova, 1% of the Moon is Illuminated
Oggi
Luna nuova
Ott 30
Primo quarto
Nov 6
Luna piena
Nov 14
Ultimo quarto
Nov 22
Nuovo

Gli estremi di oggi

State Highs State Lows

Community

WunderPhotos

Upload Photos

1,764,727 foto caricate!

WunderBlogs® & News

Nearby

Qualità dell'aria

  Qualità dell'aria Indice AQ Inquinante
Ieri Buono
PM2.5
Attuale Moderato
PM2.5
Venerdì Moderato
PM2.5
Sabato Buono
PM2.5
Domenica Buono
PM2.5
Lunedì Moderato
PM2.5

Profondità neve

Stazione Profondità Altitudine
Non sono state evidenziate nuove nevicate

Attività sismica

Città  Distanza Mag. Data & Ora
Non sono state riportate attività sismiche nelle vicinanze.
Minimo Magnitudo Mostrato è 2.5.

Temperature delle acque costiere

Località Temperatura
Nessun dato dalle stazioni

Stazioni meteo nelle vicinanze